Tavis Harrison Appointed Chief. Read More Here.

We Are Winnipeg.

Screenshot by Bryan Bagi

Come explore the heart of Canada. 


  Upcoming Events

Ty Treverton's S2 OTS  March 1, 2024 23:00z
24 Hours of VATSIM  March 2, 2024 22:00z
Zaid Al-Shammaa's S2 OTS  March 6, 2024 01:00z

  Top Controllers this Month

Patrick Ryan 878146
119:48

Zaid 1347775
74:21

Adam Brookman 1669855
65:15

Ty Treverton 1711875
44:54

Johnny Peters 1269455
33:07

  Online Controllers

No controllers online.

  Weather

CYWG - Winnipeg / James Armstrong Richardson International Airport   VFR
CYWG 281500Z 28004KT 15SM FEW075 FEW230 M22/M26 A3018 RMK AC1CI1 AC TR CI TR SLP253

CYXE - Saskatoon John G. Diefenbaker International Airport   VFR
CYXE 281500Z 06004KT 040V110 15SM FEW003 BKN220 M28/M31 A2998 RMK SF2CI5 VIS SW-N 2 SLP218

CYQT - Thunder Bay Airport   VFR
CYQT 281500Z 29011G20KT 280V340 20SM FEW015 M18/M26 A2992 RMK SC1 SLP154

CYQR - Regina International Airport   VFR
CYQR 281500Z 12009KT 15SM FEW140 BKN260 M24/M27 A3001 RMK AC2CI4 SLP228

CYMJ - Moose Jaw Air Vice Marshal C. M. McEwen Airport   VFR
CYMJ 281500Z 10008KT 15SM -SN SCT032 BKN130 OVC220 M22/M25 A2998 RMK SC3AC3CI2 DENSITY ALT -2784FT SLP211

CYPG - Portage-la-Prairie / Southport Airport   VFR
CYPG 281500Z 24006KT 15SM FEW100 M23/M27 A3018 RMK AC1 DENSITY ALT -4199FT SLP252